createdAt,value
2023-02-27T00:00:46.853Z,96375.19
2023-02-27T00:03:13.466Z,96368.13
2023-02-27T00:05:41.836Z,96373.63
2023-02-27T00:08:08.625Z,96374.97
2023-02-27T00:10:35.293Z,96377.75
2023-02-27T00:13:01.974Z,96372.03
2023-02-27T00:15:30.906Z,96380.38
2023-02-27T00:17:58.122Z,96368.38
2023-02-27T00:20:25.297Z,96375.84
2023-02-27T00:22:52.079Z,96386.81
2023-02-27T00:25:19.112Z,96392.84
2023-02-27T00:27:45.770Z,96389.63
2023-02-27T00:30:14.414Z,96398.41
2023-02-27T00:32:41.730Z,96401.66
2023-02-27T00:35:10.317Z,96398.41
2023-02-27T00:37:37.545Z,96403.75
2023-02-27T00:40:07.382Z,96399.47
2023-02-27T00:42:34.391Z,96399.75
2023-02-27T00:45:00.987Z,96402.22
2023-02-27T00:47:27.640Z,96397.69
2023-02-27T00:49:54.221Z,96412.97
2023-02-27T00:52:20.920Z,96406.56
2023-02-27T00:54:47.505Z,96407.91
2023-02-27T00:57:14.218Z,96400.19
2023-02-27T00:59:41.252Z,96407.69
2023-02-27T01:02:08.114Z,96408.25
2023-02-27T01:04:34.731Z,96399.75
2023-02-27T01:07:01.424Z,96400.97
2023-02-27T01:09:28.125Z,96399.44
2023-02-27T01:11:54.871Z,96394.25
2023-02-27T01:14:21.459Z,96404.38
2023-02-27T01:16:48.121Z,96404.38
2023-02-27T01:19:14.744Z,96406.44
2023-02-27T01:21:42.218Z,96403.34
2023-02-27T01:24:09.923Z,96408.75
2023-02-27T01:26:36.879Z,96405.03
2023-02-27T01:29:06.261Z,96400.97
2023-02-27T01:31:33.169Z,96406.75
2023-02-27T01:33:59.904Z,96409.28
2023-02-27T01:36:26.546Z,96409.28
2023-02-27T01:38:53.166Z,96413.53
2023-02-27T01:41:19.791Z,96406.09
2023-02-27T01:44:00.522Z,96406.28
2023-02-27T01:46:28.795Z,96414.34
2023-02-27T01:49:00.601Z,96407.91
2023-02-27T01:51:32.411Z,96404.69
2023-02-27T01:54:00.522Z,96402.50
2023-02-27T01:56:32.118Z,96402.59
2023-02-27T01:59:03.546Z,96401.16
2023-02-27T02:01:32.470Z,96402.22
2023-02-27T02:04:21.927Z,96399.59
2023-02-27T02:06:51.212Z,96406.00
2023-02-27T02:09:20.566Z,96394.25
2023-02-27T02:11:48.412Z,96398.47
2023-02-27T02:14:15.186Z,96406.84
2023-02-27T02:16:45.612Z,96401.66
2023-02-27T02:19:39.858Z,96402.78
2023-02-27T02:22:43.871Z,96396.31
2023-02-27T02:25:13.151Z,96394.03
2023-02-27T02:27:57.917Z,96392.31
2023-02-27T02:30:36.971Z,96392.66
2023-02-27T02:33:32.723Z,96391.13
2023-02-27T02:36:20.710Z,96402.00
2023-02-27T02:38:56.147Z,96396.16
2023-02-27T02:41:22.714Z,96402.44
2023-02-27T02:43:58.840Z,96404.94
2023-02-27T02:46:38.813Z,96409.72
2023-02-27T02:49:11.428Z,96411.28
2023-02-27T02:52:03.167Z,96412.91
2023-02-27T02:54:38.454Z,96407.56
2023-02-27T02:57:21.357Z,96413.19
2023-02-27T02:59:50.859Z,96410.50
2023-02-27T03:02:21.783Z,96414.06
2023-02-27T03:05:00.485Z,96414.06
2023-02-27T03:07:32.933Z,96408.19
2023-02-27T03:10:40.651Z,96416.47
2023-02-27T03:13:18.109Z,96423.94
2023-02-27T03:16:00.131Z,96417.50
2023-02-27T03:18:34.943Z,96422.88
2023-02-27T03:21:17.606Z,96426.66
2023-02-27T03:23:47.670Z,96428.16
2023-02-27T03:26:18.933Z,96426.56
2023-02-27T03:29:01.713Z,96428.38
2023-02-27T03:31:52.408Z,96434.50
2023-02-27T03:34:22.414Z,96435.00
2023-02-27T03:37:01.950Z,96437.72
2023-02-27T03:39:46.813Z,96443.00
2023-02-27T03:42:37.537Z,96441.78
2023-02-27T03:45:12.978Z,96438.13
2023-02-27T03:47:39.957Z,96440.44
2023-02-27T03:50:07.113Z,96445.28
2023-02-27T03:52:33.880Z,96440.69
2023-02-27T03:55:09.769Z,96443.97
2023-02-27T03:57:37.582Z,96444.63
2023-02-27T04:00:07.161Z,96442.63
2023-02-27T04:02:35.362Z,96443.78
2023-02-27T04:05:02.136Z,96444.91
2023-02-27T04:07:57.942Z,96448.13
2023-02-27T04:10:56.521Z,96456.81
2023-02-27T04:13:31.736Z,96448.69
2023-02-27T04:16:38.219Z,96453.13
2023-02-27T04:20:02.112Z,96454.41
2023-02-27T04:22:37.171Z,96453.97
2023-02-27T04:25:23.980Z,96452.84
2023-02-27T04:28:17.649Z,96454.31
2023-02-27T04:31:14.012Z,96450.19
2023-02-27T04:34:00.771Z,96448.06
2023-02-27T04:36:47.945Z,96450.41
2023-02-27T04:39:23.233Z,96455.91
2023-02-27T04:42:06.802Z,96446.78
2023-02-27T04:44:37.223Z,96453.56
2023-02-27T04:47:07.339Z,96454.13
2023-02-27T04:49:44.266Z,96458.09
2023-02-27T04:52:22.952Z,96460.44
2023-02-27T04:54:54.776Z,96450.19
2023-02-27T04:57:32.034Z,96452.59
2023-02-27T05:00:01.362Z,96454.88
2023-02-27T05:02:42.781Z,96454.50
2023-02-27T05:05:14.497Z,96454.94
2023-02-27T05:08:09.399Z,96453.91
2023-02-27T05:10:58.144Z,96446.78
2023-02-27T05:13:33.621Z,96426.97
2023-02-27T05:16:05.440Z,96446.34
2023-02-27T05:18:32.417Z,96440.72
2023-02-27T05:21:28.347Z,96449.66
2023-02-27T05:23:59.250Z,96453.22
2023-02-27T05:26:51.786Z,96441.00
2023-02-27T05:29:31.361Z,96441.97
2023-02-27T05:32:36.476Z,96442.63
2023-02-27T05:35:12.853Z,96442.41
2023-02-27T05:37:48.111Z,96451.38
2023-02-27T05:40:32.054Z,96447.88
2023-02-27T05:43:06.728Z,96457.38
2023-02-27T05:45:37.102Z,96452.53
2023-02-27T05:48:19.348Z,96465.91
2023-02-27T05:50:50.210Z,96455.00
2023-02-27T05:53:20.182Z,96461.47
2023-02-27T05:55:50.695Z,96470.03
2023-02-27T05:58:28.742Z,96463.94
2023-02-27T06:01:03.779Z,96471.59
2023-02-27T06:03:33.714Z,96468.56
2023-02-27T06:06:02.878Z,96467.94
2023-02-27T06:08:29.770Z,96472.88
2023-02-27T06:10:56.695Z,96464.75
2023-02-27T06:13:24.340Z,96472.06
2023-02-27T06:15:51.120Z,96471.72
2023-02-27T06:18:18.790Z,96474.72
2023-02-27T06:20:46.683Z,96478.72
2023-02-27T06:23:13.799Z,96476.69
2023-02-27T06:25:42.348Z,96475.88
2023-02-27T06:28:10.090Z,96482.63
2023-02-27T06:30:37.131Z,96479.94
2023-02-27T06:33:04.822Z,96483.00
2023-02-27T06:35:31.616Z,96491.84
2023-02-27T06:37:58.874Z,96494.28
2023-02-27T06:40:25.967Z,96490.84
2023-02-27T06:42:52.547Z,96493.28
2023-02-27T06:45:19.458Z,96496.91
2023-02-27T06:47:46.059Z,96501.34
2023-02-27T06:50:14.066Z,96493.88
2023-02-27T06:52:41.251Z,96488.03
2023-02-27T06:55:08.981Z,96491.44
2023-02-27T06:57:35.680Z,96500.34
2023-02-27T07:00:03.067Z,96498.28
2023-02-27T07:02:29.833Z,96499.31
2023-02-27T07:04:56.507Z,96502.91
2023-02-27T07:07:35.532Z,96488.09
2023-02-27T07:10:05.823Z,96501.97
2023-02-27T07:12:32.442Z,96509.53
2023-02-27T07:14:59.195Z,96505.13
2023-02-27T07:17:25.872Z,96513.25
2023-02-27T07:19:52.489Z,96501.00
2023-02-27T07:22:19.114Z,96513.19
2023-02-27T07:24:45.702Z,96516.84
2023-02-27T07:27:12.315Z,96509.91
2023-02-27T07:29:38.949Z,96516.19
2023-02-27T07:32:05.682Z,96505.41
2023-02-27T07:34:32.320Z,96508.63
2023-02-27T07:36:58.955Z,96509.50
2023-02-27T07:39:25.573Z,96520.81
2023-02-27T07:41:52.246Z,96518.13
2023-02-27T07:44:19.062Z,96503.72
2023-02-27T07:46:47.429Z,96513.84
2023-02-27T07:49:14.183Z,96509.78
2023-02-27T07:51:40.823Z,96517.53
2023-02-27T07:54:07.600Z,96517.84
2023-02-27T07:56:34.596Z,96508.56
2023-02-27T07:59:01.341Z,96517.97
2023-02-27T08:01:28.003Z,96517.13
2023-02-27T08:03:55.421Z,96523.59
2023-02-27T08:06:23.643Z,96514.25
2023-02-27T08:08:51.095Z,96529.66
2023-02-27T08:11:18.588Z,96534.88
2023-02-27T08:14:03.593Z,96536.16
2023-02-27T08:16:32.169Z,96538.94
2023-02-27T08:19:00.091Z,96526.38
2023-02-27T08:21:27.507Z,96524.41
2023-02-27T08:23:54.691Z,96527.06
2023-02-27T08:26:21.850Z,96533.75
2023-02-27T08:28:48.535Z,96531.09
2023-02-27T08:31:15.318Z,96536.97
2023-02-27T08:33:41.990Z,96534.22
2023-02-27T08:36:10.152Z,96525.16
2023-02-27T08:38:36.915Z,96522.66
2023-02-27T08:41:04.420Z,96529.63
2023-02-27T08:43:31.110Z,96530.94
2023-02-27T08:45:57.864Z,96536.47
2023-02-27T08:48:24.980Z,96539.81
2023-02-27T08:50:51.915Z,96536.34
2023-02-27T08:53:18.584Z,96534.22
2023-02-27T08:55:50.053Z,96541.50
2023-02-27T08:58:18.101Z,96534.75
2023-02-27T09:00:45.042Z,96545.91
2023-02-27T09:03:11.700Z,96541.94
2023-02-27T09:05:38.755Z,96544.00
2023-02-27T09:08:05.887Z,96555.03
2023-02-27T09:10:35.822Z,96551.94
2023-02-27T09:13:02.580Z,96560.56
2023-02-27T09:15:30.238Z,96553.75
2023-02-27T09:18:02.449Z,96565.88
2023-02-27T09:20:31.817Z,96567.19
2023-02-27T09:22:59.327Z,96575.41
2023-02-27T09:25:27.200Z,96571.66
2023-02-27T09:27:53.941Z,96580.25
2023-02-27T09:30:20.756Z,96571.13
2023-02-27T09:32:47.515Z,96563.53
2023-02-27T09:35:17.210Z,96574.34
2023-02-27T09:37:44.182Z,96587.53
2023-02-27T09:40:22.668Z,96574.78
2023-02-27T09:42:49.942Z,96588.09
2023-02-27T09:45:28.441Z,96595.31
2023-02-27T09:48:08.580Z,96586.06
2023-02-27T09:50:40.989Z,96594.44
2023-02-27T09:53:14.483Z,96600.53
2023-02-27T09:55:42.907Z,96595.38
2023-02-27T09:58:46.981Z,96603.03
2023-02-27T10:01:20.325Z,96598.63
2023-02-27T10:03:56.383Z,96598.63
2023-02-27T10:06:31.124Z,96597.00
2023-02-27T10:09:21.786Z,96603.03
2023-02-27T10:12:13.673Z,96607.06
2023-02-27T10:14:48.766Z,96602.41
2023-02-27T10:17:25.799Z,96595.22
2023-02-27T10:19:53.855Z,96599.63
2023-02-27T10:22:28.029Z,96603.16
2023-02-27T10:25:08.991Z,96597.31
2023-02-27T10:27:39.935Z,96582.78
2023-02-27T10:30:32.372Z,96609.78
2023-02-27T10:33:21.945Z,96607.22
2023-02-27T10:35:48.672Z,96580.38
2023-02-27T10:38:20.423Z,96609.09
2023-02-27T10:40:48.408Z,96594.44
2023-02-27T10:43:19.204Z,96598.50
2023-02-27T10:45:45.982Z,96606.13
2023-02-27T10:48:14.524Z,96603.97
2023-02-27T10:50:46.291Z,96591.19
2023-02-27T10:53:27.957Z,96595.97
2023-02-27T10:56:04.200Z,96598.41
2023-02-27T10:58:34.923Z,96588.16
2023-02-27T11:01:08.207Z,96590.41
2023-02-27T11:03:41.507Z,96577.00
2023-02-27T11:06:23.640Z,96585.13
2023-02-27T11:09:12.037Z,96582.97
2023-02-27T11:11:39.093Z,96572.63
2023-02-27T11:14:25.244Z,96569.50
2023-02-27T11:17:00.781Z,96578.28
2023-02-27T11:19:35.732Z,96591.25
2023-02-27T11:22:16.174Z,96577.50
2023-02-27T11:24:43.338Z,96573.34
2023-02-27T11:27:26.431Z,96587.81
2023-02-27T11:30:03.964Z,96572.00
2023-02-27T11:32:41.448Z,96578.75
2023-02-27T11:35:22.993Z,96583.31
2023-02-27T11:37:51.620Z,96572.00
2023-02-27T11:40:21.208Z,96577.28
2023-02-27T11:42:58.505Z,96577.50
2023-02-27T11:46:23.067Z,96572.22
2023-02-27T11:48:21.942Z,96579.41
2023-02-27T11:50:50.958Z,96575.78
2023-02-27T11:53:46.445Z,96572.66
2023-02-27T11:56:23.012Z,96568.28
2023-02-27T11:59:04.173Z,96583.28
2023-02-27T12:01:38.768Z,96568.00
2023-02-27T12:04:17.971Z,96560.38
2023-02-27T12:06:55.896Z,96559.94
2023-02-27T12:09:35.268Z,96565.66
2023-02-27T12:12:06.158Z,96574.75
2023-02-27T12:14:54.617Z,96565.16
2023-02-27T12:17:34.018Z,96556.38
2023-02-27T12:20:22.613Z,96555.78
2023-02-27T12:22:52.961Z,96562.25
2023-02-27T12:25:34.844Z,96557.69
2023-02-27T12:28:39.792Z,96558.25
2023-02-27T12:31:12.226Z,96563.44
2023-02-27T12:33:44.859Z,96554.09
2023-02-27T12:36:13.920Z,96558.44
2023-02-27T12:38:40.999Z,96563.44
2023-02-27T12:41:27.675Z,96567.66
2023-02-27T12:44:21.238Z,96561.53
2023-02-27T12:47:04.825Z,96549.84
2023-02-27T12:50:12.543Z,96567.59
2023-02-27T12:53:02.488Z,96560.22
2023-02-27T12:55:34.775Z,96569.25
2023-02-27T12:58:16.367Z,96561.53
2023-02-27T13:00:46.457Z,96570.97
2023-02-27T13:03:27.359Z,96558.22
2023-02-27T13:06:01.745Z,96567.19
2023-02-27T13:08:34.066Z,96572.75
2023-02-27T13:11:08.170Z,96570.53
2023-02-27T13:13:48.850Z,96556.09
2023-02-27T13:16:26.078Z,96561.19
2023-02-27T13:18:57.181Z,96563.72
2023-02-27T13:21:42.846Z,96557.41
2023-02-27T13:24:23.653Z,96565.38
2023-02-27T13:26:58.101Z,96566.38
2023-02-27T13:29:37.102Z,96569.50
2023-02-27T13:32:41.276Z,96560.53
2023-02-27T13:35:15.975Z,96563.31
2023-02-27T13:38:05.369Z,96560.22
2023-02-27T13:40:37.191Z,96558.19
2023-02-27T13:43:46.445Z,96568.22
2023-02-27T13:46:31.703Z,96557.13
2023-02-27T13:49:20.104Z,96558.22
2023-02-27T13:51:56.464Z,96563.59
2023-02-27T13:54:26.881Z,96553.25
2023-02-27T13:56:59.476Z,96559.41
2023-02-27T13:59:53.864Z,96553.19
2023-02-27T14:02:35.643Z,96560.66
2023-02-27T14:05:06.206Z,96552.13
2023-02-27T14:07:48.960Z,96554.09
2023-02-27T14:10:23.662Z,96550.75
2023-02-27T14:12:50.758Z,96555.13
2023-02-27T14:15:23.215Z,96555.34
2023-02-27T14:18:13.952Z,96557.47
2023-02-27T14:20:42.463Z,96555.44
2023-02-27T14:23:14.912Z,96572.09
2023-02-27T14:26:12.532Z,96559.63
2023-02-27T14:28:55.821Z,96564.41
2023-02-27T14:31:31.096Z,96564.09
2023-02-27T14:34:05.094Z,96561.91
2023-02-27T14:36:45.986Z,96568.16
2023-02-27T14:39:32.099Z,96563.97
2023-02-27T14:42:15.576Z,96571.00
2023-02-27T14:44:47.694Z,96551.09
2023-02-27T14:47:31.260Z,96568.22
2023-02-27T14:49:58.368Z,96578.34
2023-02-27T14:52:29.803Z,96570.13
2023-02-27T14:55:18.199Z,96560.84
2023-02-27T14:58:16.471Z,96579.13
2023-02-27T15:01:03.464Z,96575.69
2023-02-27T15:03:46.927Z,96575.16
2023-02-27T15:06:40.331Z,96587.22
2023-02-27T15:09:07.647Z,96595.69
2023-02-27T15:11:34.903Z,96575.38
2023-02-27T15:14:06.337Z,96604.91
2023-02-27T15:16:37.847Z,96584.44
2023-02-27T15:19:17.213Z,96607.41
2023-02-27T15:21:47.324Z,96605.78
2023-02-27T15:24:22.747Z,96602.06
2023-02-27T15:26:54.643Z,96610.78
2023-02-27T15:29:25.405Z,96603.50
2023-02-27T15:31:53.356Z,96596.22
2023-02-27T15:34:20.692Z,96600.78
2023-02-27T15:36:52.318Z,96607.00
2023-02-27T15:39:22.842Z,96586.97
2023-02-27T15:42:02.949Z,96591.00
2023-02-27T15:44:34.729Z,96596.38
2023-02-27T15:47:02.141Z,96611.63
2023-02-27T15:49:29.006Z,96605.34
2023-02-27T15:52:18.386Z,96621.91
2023-02-27T15:54:52.487Z,96621.97
2023-02-27T15:57:22.976Z,96637.00
2023-02-27T15:59:51.026Z,96626.88
2023-02-27T16:02:26.480Z,96634.53
2023-02-27T16:04:53.551Z,96631.47
2023-02-27T16:07:25.559Z,96635.53
2023-02-27T16:10:08.556Z,96636.22
2023-02-27T16:12:37.871Z,96636.22
2023-02-27T16:15:18.167Z,96653.72
2023-02-27T16:17:54.050Z,96652.50
2023-02-27T16:20:32.393Z,96650.44
2023-02-27T16:23:06.473Z,96646.41
2023-02-27T16:25:33.619Z,96649.44
2023-02-27T16:28:00.660Z,96652.75
2023-02-27T16:30:27.731Z,96652.97
2023-02-27T16:33:01.953Z,96660.44
2023-02-27T16:35:29.443Z,96642.44
2023-02-27T16:38:01.832Z,96660.03
2023-02-27T16:40:29.821Z,96656.41
2023-02-27T16:42:56.614Z,96660.66
2023-02-27T16:45:28.025Z,96667.97
2023-02-27T16:47:57.873Z,96667.97
2023-02-27T16:50:34.649Z,96674.06
2023-02-27T16:53:01.343Z,96667.97
2023-02-27T16:55:28.091Z,96669.59
2023-02-27T16:57:54.818Z,96682.25
2023-02-27T17:00:24.896Z,96684.63
2023-02-27T17:02:51.723Z,96673.22
2023-02-27T17:05:19.020Z,96685.41
2023-02-27T17:07:45.795Z,96686.19
2023-02-27T17:10:18.250Z,96691.91
2023-02-27T17:12:46.974Z,96693.94
2023-02-27T17:15:14.325Z,96691.72
2023-02-27T17:17:41.197Z,96696.41
2023-02-27T17:20:10.198Z,96688.31
2023-02-27T17:22:39.522Z,96692.56
2023-02-27T17:25:07.487Z,96694.81
2023-02-27T17:27:34.210Z,96691.97
2023-02-27T17:30:00.826Z,96696.06
2023-02-27T17:32:27.599Z,96694.00
2023-02-27T17:34:55.831Z,96698.69
2023-02-27T17:37:23.007Z,96704.56
2023-02-27T17:39:49.763Z,96701.53
2023-02-27T17:42:18.716Z,96701.34
2023-02-27T17:44:46.518Z,96702.94
2023-02-27T17:47:14.152Z,96708.63
2023-02-27T17:49:42.012Z,96705.78
2023-02-27T17:52:09.582Z,96714.31
2023-02-27T17:54:36.492Z,96710.09
2023-02-27T17:57:06.971Z,96716.38
2023-02-27T17:59:34.083Z,96713.53
2023-02-27T18:02:00.675Z,96718.38
2023-02-27T18:04:27.631Z,96712.72
2023-02-27T18:06:54.455Z,96715.53
2023-02-27T18:09:21.211Z,96718.41
2023-02-27T18:11:47.834Z,96719.25
2023-02-27T18:14:14.514Z,96726.53
2023-02-27T18:16:42.611Z,96720.00
2023-02-27T18:19:09.415Z,96722.09
2023-02-27T18:21:36.134Z,96730.22
2023-02-27T18:24:02.961Z,96723.09
2023-02-27T18:26:31.513Z,96732.63
2023-02-27T18:29:00.445Z,96732.84
2023-02-27T18:31:30.112Z,96727.56
2023-02-27T18:33:56.958Z,96729.78
2023-02-27T18:36:23.730Z,96737.91
2023-02-27T18:38:51.069Z,96737.09
2023-02-27T18:41:17.691Z,96740.34
2023-02-27T18:43:44.801Z,96733.44
2023-02-27T18:46:12.922Z,96724.53
2023-02-27T18:48:40.844Z,96744.44
2023-02-27T18:51:12.335Z,96736.50
2023-02-27T18:53:40.928Z,96746.84
2023-02-27T18:56:09.063Z,96743.59
2023-02-27T18:58:36.215Z,96745.22
2023-02-27T19:01:04.114Z,96741.75
2023-02-27T19:03:32.083Z,96749.69
2023-02-27T19:05:58.975Z,96747.28
2023-02-27T19:08:29.115Z,96748.28
2023-02-27T19:10:57.224Z,96754.34
2023-02-27T19:13:25.399Z,96748.69
2023-02-27T19:15:52.734Z,96749.31
2023-02-27T19:18:19.443Z,96749.28
2023-02-27T19:20:46.597Z,96752.53
2023-02-27T19:23:13.181Z,96758.00
2023-02-27T19:25:41.981Z,96760.25
2023-02-27T19:28:11.432Z,96757.00
2023-02-27T19:30:39.425Z,96763.50
2023-02-27T19:33:06.167Z,96758.81
2023-02-27T19:35:32.933Z,96761.25
2023-02-27T19:37:59.609Z,96758.22
2023-02-27T19:40:27.325Z,96755.38
2023-02-27T19:42:53.925Z,96758.22
2023-02-27T19:45:20.615Z,96757.19
2023-02-27T19:47:47.239Z,96757.81
2023-02-27T19:50:13.988Z,96757.81
2023-02-27T19:52:40.714Z,96771.63
2023-02-27T19:55:07.918Z,96764.06
2023-02-27T19:57:37.567Z,96763.06
2023-02-27T20:00:08.697Z,96764.69
2023-02-27T20:02:35.436Z,96759.84
2023-02-27T20:05:03.199Z,96765.72
2023-02-27T20:07:30.482Z,96762.44
2023-02-27T20:09:57.128Z,96762.66
2023-02-27T20:12:23.929Z,96761.25
2023-02-27T20:14:50.565Z,96767.53
2023-02-27T20:17:17.725Z,96766.91
2023-02-27T20:19:44.409Z,96754.34
2023-02-27T20:22:13.625Z,96765.50
2023-02-27T20:24:40.253Z,96758.63
2023-02-27T20:27:07.385Z,96760.25
2023-02-27T20:29:34.092Z,96756.16
2023-02-27T20:32:01.306Z,96753.16
2023-02-27T20:34:28.614Z,96756.41
2023-02-27T20:36:57.121Z,96750.09
2023-02-27T20:39:24.620Z,96741.78
2023-02-27T20:41:51.281Z,96749.28
2023-02-27T20:44:18.020Z,96739.56
2023-02-27T20:46:45.161Z,96743.44
2023-02-27T20:49:16.817Z,96742.44
2023-02-27T20:51:44.372Z,96740.00
2023-02-27T20:54:15.412Z,96739.97
2023-02-27T20:56:43.247Z,96745.28
2023-02-27T20:59:13.638Z,96747.31
2023-02-27T21:01:41.033Z,96739.19
2023-02-27T21:04:07.835Z,96737.56
2023-02-27T21:06:35.034Z,96740.59
2023-02-27T21:09:05.124Z,96747.53
2023-02-27T21:11:33.346Z,96736.34
2023-02-27T21:14:09.159Z,96742.84
2023-02-27T21:16:36.777Z,96740.03
2023-02-27T21:19:04.345Z,96742.03
2023-02-27T21:21:33.069Z,96735.53
2023-02-27T21:24:00.753Z,96740.44
2023-02-27T21:26:30.527Z,96744.47
2023-02-27T21:29:02.955Z,96740.22
2023-02-27T21:31:32.900Z,96742.84
2023-02-27T21:34:01.634Z,96746.47
2023-02-27T21:36:32.364Z,96746.47
2023-02-27T21:39:01.374Z,96745.09
2023-02-27T21:41:29.502Z,96735.56
2023-02-27T21:44:00.793Z,96744.06
2023-02-27T21:46:28.336Z,96744.06
2023-02-27T21:48:55.484Z,96747.94
2023-02-27T21:51:38.327Z,96748.13
2023-02-27T21:54:06.802Z,96733.94
2023-02-27T21:56:33.805Z,96728.66
2023-02-27T21:59:01.932Z,96741.22
2023-02-27T22:01:29.915Z,96733.94
2023-02-27T22:03:57.346Z,96734.75
2023-02-27T22:06:25.907Z,96731.31
2023-02-27T22:08:57.310Z,96733.13
2023-02-27T22:11:25.687Z,96731.91
2023-02-27T22:13:52.628Z,96731.13
2023-02-27T22:16:20.061Z,96725.22
2023-02-27T22:18:47.621Z,96729.88
2023-02-27T22:21:17.340Z,96716.91
2023-02-27T22:23:45.422Z,96720.53
2023-02-27T22:26:24.317Z,96713.06
2023-02-27T22:28:52.484Z,96719.13
2023-02-27T22:31:25.151Z,96714.47
2023-02-27T22:33:54.042Z,96714.91
2023-02-27T22:36:23.611Z,96685.69
2023-02-27T22:38:51.179Z,96705.19
2023-02-27T22:41:20.840Z,96710.44
2023-02-27T22:43:47.610Z,96706.19
2023-02-27T22:46:17.304Z,96694.25
2023-02-27T22:48:44.508Z,96699.31
2023-02-27T22:51:14.607Z,96700.72
2023-02-27T22:53:46.124Z,96712.25
2023-02-27T22:56:15.195Z,96704.97
2023-02-27T22:58:44.284Z,96716.50
2023-02-27T23:01:17.748Z,96715.72
2023-02-27T23:03:46.373Z,96706.00
2023-02-27T23:06:18.461Z,96712.06
2023-02-27T23:08:45.296Z,96714.50
2023-02-27T23:11:13.807Z,96722.63
2023-02-27T23:13:41.327Z,96715.72
2023-02-27T23:16:14.357Z,96702.75
2023-02-27T23:18:41.611Z,96709.63
2023-02-27T23:21:09.746Z,96713.72
2023-02-27T23:23:36.604Z,96721.00
2023-02-27T23:26:04.354Z,96716.75
2023-02-27T23:28:31.762Z,96714.53
2023-02-27T23:30:59.522Z,96715.34
2023-02-27T23:33:27.151Z,96717.97
2023-02-27T23:35:54.066Z,96710.88
2023-02-27T23:38:20.775Z,96712.47
2023-02-27T23:40:47.714Z,96701.97
2023-02-27T23:43:14.536Z,96712.47
2023-02-27T23:45:41.675Z,96716.13
2023-02-27T23:48:08.761Z,96713.72
2023-02-27T23:50:38.554Z,96722.00
2023-02-27T23:53:06.154Z,96715.34
2023-02-27T23:55:35.991Z,96703.97
2023-02-27T23:58:05.265Z,96716.53
